Time;durP1;ratioP1;P1;durP2;ratioP2;P2;SDS_P1;SDS_P2;PMS_P1;PMS_P2;Temp;Humidity;BMP_temperature;BMP_pressure;BME280_temperature;BME280_humidity;BME280_pressure;Samples;Min_cycle;Max_cycle;Signal;HPM_P1;HPM_P2
2023/04/05 00:01:24;;;;;;;;;;;19.40;30.20;;;;;;8364842;28;19917;-43
2023/04/05 00:05:29;;;;;;;;;;;19.40;30.20;;;;;;8364214;28;19924;-43
2023/04/05 00:09:29;;;;;;;;;;;19.40;30.20;;;;;;8364276;28;19925;-43
2023/04/05 00:13:30;;;;;;;;;;;19.40;30.20;;;;;;8364657;28;20039;-43
2023/04/05 00:17:30;;;;;;;;;;;19.30;30.70;;;;;;8363535;28;20441;-43
2023/04/05 00:21:32;;;;;;;;;;;19.30;30.20;;;;;;8364546;28;20308;-43
2023/04/05 00:25:32;;;;;;;;;;;19.30;30.20;;;;;;8363958;28;19932;-43
2023/04/05 00:29:33;;;;;;;;;;;19.30;30.30;;;;;;8363378;28;19958;-43
2023/04/05 00:33:33;;;;;;;;;;;19.20;30.30;;;;;;8363995;28;19986;-43
2023/04/05 00:37:34;;;;;;;;;;;19.30;30.20;;;;;;8363686;28;19913;-43
2023/04/05 00:41:35;;;;;;;;;;;19.20;30.20;;;;;;8363454;28;20289;-43
2023/04/05 00:45:35;;;;;;;;;;;19.20;30.20;;;;;;8363263;28;19924;-43
2023/04/05 00:49:36;;;;;;;;;;;19.20;30.20;;;;;;8363420;28;20003;-42
2023/04/05 00:53:37;;;;;;;;;;;19.20;30.20;;;;;;8362853;28;20294;-43
2023/04/05 00:57:41;;;;;;;;;;;19.20;30.30;;;;;;8363266;28;19941;-43
2023/04/05 01:01:41;;;;;;;;;;;19.20;30.20;;;;;;8363370;28;19916;-43
2023/04/05 01:05:46;;;;;;;;;;;19.10;30.20;;;;;;8361071;28;20405;-43
2023/04/05 01:09:46;;;;;;;;;;;19.10;30.20;;;;;;8362942;28;20012;-43
2023/04/05 01:13:46;;;;;;;;;;;19.10;30.30;;;;;;8362906;28;19917;-43
2023/04/05 01:17:47;;;;;;;;;;;19.10;31.00;;;;;;8362579;28;19917;-43
2023/04/05 01:22:12;;;;;;;;;;;19.10;30.40;;;;;;8363367;28;19913;-43
2023/04/05 01:26:23;;;;;;;;;;;19.00;30.20;;;;;;8363109;28;19925;-43
2023/04/05 01:30:46;;;;;;;;;;;19.00;30.30;;;;;;8371835;28;19923;-43
2023/04/05 01:35:00;;;;;;;;;;;19.00;30.20;;;;;;8395991;28;19917;-43
2023/04/05 01:39:01;;;;;;;;;;;19.00;30.80;;;;;;8395316;28;20003;-43
2023/04/05 01:43:02;;;;;;;;;;;19.00;30.30;;;;;;8395640;28;19928;-43
2023/04/05 01:47:02;;;;;;;;;;;19.00;30.30;;;;;;8395786;28;19913;-43
2023/04/05 01:51:03;;;;;;;;;;;19.00;30.20;;;;;;8395140;28;20305;-43
2023/04/05 01:55:03;;;;;;;;;;;19.00;30.30;;;;;;8395435;28;19917;-43
2023/04/05 01:59:04;;;;;;;;;;;18.90;30.30;;;;;;8395516;28;20259;-43
2023/04/05 02:03:04;;;;;;;;;;;18.90;30.30;;;;;;8394988;28;19962;-43
2023/04/05 02:07:04;;;;;;;;;;;18.90;30.30;;;;;;8394179;28;20365;-43
2023/04/05 02:11:05;;;;;;;;;;;18.90;30.30;;;;;;8397736;28;19917;-43
2023/04/05 02:15:06;;;;;;;;;;;18.90;30.30;;;;;;8400545;28;19921;-43
2023/04/05 02:19:06;;;;;;;;;;;18.90;30.30;;;;;;8401024;28;20412;-43
2023/04/05 02:23:07;;;;;;;;;;;18.90;30.30;;;;;;8400906;28;19970;-43
2023/04/05 02:27:07;;;;;;;;;;;18.80;30.20;;;;;;8400627;28;19995;-43
2023/04/05 02:31:11;;;;;;;;;;;18.80;30.30;;;;;;8400838;28;20373;-43
2023/04/05 02:35:11;;;;;;;;;;;18.80;30.20;;;;;;8401147;28;20011;-43
2023/04/05 02:39:12;;;;;;;;;;;18.80;30.30;;;;;;8399920;28;19924;-44
2023/04/05 02:43:13;;;;;;;;;;;18.80;30.30;;;;;;8400467;28;20398;-43
2023/04/05 02:47:20;;;;;;;;;;;18.80;30.30;;;;;;8400344;28;20411;-43
2023/04/05 02:51:20;;;;;;;;;;;18.70;30.30;;;;;;8400161;28;19931;-43
2023/04/05 02:55:20;;;;;;;;;;;18.70;30.30;;;;;;8399940;28;19916;-43
2023/04/05 02:59:21;;;;;;;;;;;18.70;30.30;;;;;;8399378;28;19920;-43
2023/04/05 03:03:22;;;;;;;;;;;18.70;30.30;;;;;;8399683;28;19936;-42
2023/04/05 03:07:24;;;;;;;;;;;18.70;30.30;;;;;;8399629;28;20425;-43
2023/04/05 03:11:25;;;;;;;;;;;18.70;30.30;;;;;;8399043;28;19917;-43
2023/04/05 03:15:26;;;;;;;;;;;18.70;30.30;;;;;;8399261;28;19923;-43
2023/04/05 03:19:27;;;;;;;;;;;18.70;30.30;;;;;;8398974;28;19916;-43
2023/04/05 03:23:28;;;;;;;;;;;18.70;30.30;;;;;;8398597;28;20370;-44
2023/04/05 03:27:29;;;;;;;;;;;18.70;30.30;;;;;;8399110;28;19934;-43
2023/04/05 03:31:29;;;;;;;;;;;18.60;30.20;;;;;;8398807;28;19924;-42
2023/04/05 03:35:30;;;;;;;;;;;18.70;30.30;;;;;;8398163;28;19923;-42
2023/04/05 03:39:30;;;;;;;;;;;18.60;30.30;;;;;;8398455;28;19917;-42
2023/04/05 03:43:31;;;;;;;;;;;18.70;30.30;;;;;;8398423;28;19924;-43
2023/04/05 03:47:32;;;;;;;;;;;18.70;30.30;;;;;;8398383;28;19913;-42
2023/04/05 03:51:32;;;;;;;;;;;18.70;30.30;;;;;;8397863;28;19943;-42
2023/04/05 03:55:33;;;;;;;;;;;18.60;30.20;;;;;;8397895;28;19920;-42
2023/04/05 03:59:33;;;;;;;;;;;18.60;30.20;;;;;;8397374;28;19917;-42
2023/04/05 04:03:36;;;;;;;;;;;18.60;30.20;;;;;;8397661;28;19924;-42
2023/04/05 04:07:36;;;;;;;;;;;18.60;30.20;;;;;;8396889;28;19916;-42
2023/04/05 04:11:37;;;;;;;;;;;18.60;30.20;;;;;;8396959;28;20009;-42
2023/04/05 04:15:37;;;;;;;;;;;18.70;30.30;;;;;;8396014;28;19924;-42
2023/04/05 04:19:38;;;;;;;;;;;18.80;30.20;;;;;;8397160;28;19916;-42
2023/04/05 04:23:38;;;;;;;;;;;19.00;30.20;;;;;;8396537;28;19924;-42
2023/04/05 04:27:40;;;;;;;;;;;19.00;30.10;;;;;;8397284;28;19919;-43
2023/04/05 04:31:44;;;;;;;;;;;19.20;30.10;;;;;;8397001;28;19920;-42
2023/04/05 04:35:45;;;;;;;;;;;19.30;30.10;;;;;;8396029;28;19920;-42
2023/04/05 04:39:47;;;;;;;;;;;19.40;30.10;;;;;;8396557;28;19974;-42
2023/04/05 04:43:48;;;;;;;;;;;19.40;30.00;;;;;;8396844;28;19925;-42
2023/04/05 04:47:48;;;;;;;;;;;19.50;30.00;;;;;;8396390;28;20309;-43
2023/04/05 04:51:49;;;;;;;;;;;19.50;30.00;;;;;;8396357;28;19916;-42
2023/04/05 04:55:49;;;;;;;;;;;19.60;30.00;;;;;;8396241;28;19920;-42
2023/04/05 04:59:50;;;;;;;;;;;19.60;30.00;;;;;;8395931;28;19940;-42
2023/04/05 05:03:50;;;;;;;;;;;19.60;30.00;;;;;;8396334;28;20091;-42
2023/04/05 05:07:51;;;;;;;;;;;19.60;30.00;;;;;;8396457;28;20334;-42
2023/04/05 05:11:51;;;;;;;;;;;19.60;30.00;;;;;;8395669;28;20003;-42
2023/04/05 05:15:52;;;;;;;;;;;19.60;29.90;;;;;;8396308;28;19917;-42
2023/04/05 05:19:54;;;;;;;;;;;19.60;30.00;;;;;;8396120;28;19923;-42
2023/04/05 05:23:54;;;;;;;;;;;19.60;30.00;;;;;;8395475;28;20347;-42
2023/04/05 05:27:55;;;;;;;;;;;19.50;30.00;;;;;;8396056;28;19995;-42
2023/04/05 05:31:56;;;;;;;;;;;19.50;30.00;;;;;;8395945;28;19924;-42
2023/04/05 05:35:56;;;;;;;;;;;19.50;30.00;;;;;;8395379;28;19916;-42
2023/04/05 05:39:57;;;;;;;;;;;19.50;30.00;;;;;;8395948;28;20334;-42
2023/04/05 05:43:57;;;;;;;;;;;19.40;29.90;;;;;;8395497;28;20373;-42
2023/04/05 05:47:57;;;;;;;;;;;19.40;30.00;;;;;;8401047;28;19920;-42
2023/04/05 05:51:58;;;;;;;;;;;19.40;30.00;;;;;;8401850;28;20278;-43
2023/04/05 05:55:59;;;;;;;;;;;19.40;30.10;;;;;;8401765;28;19916;-42
2023/04/05 05:59:59;;;;;;;;;;;19.50;30.00;;;;;;8401158;28;20298;-42
2023/04/05 06:04:00;;;;;;;;;;;19.50;30.00;;;;;;8401180;28;19925;-43
2023/04/05 06:08:02;;;;;;;;;;;19.60;30.00;;;;;;8401781;28;19916;-42
2023/04/05 06:12:03;;;;;;;;;;;19.60;30.00;;;;;;8400727;28;19916;-42
2023/04/05 06:16:03;;;;;;;;;;;19.70;30.00;;;;;;8400998;28;19916;-42
2023/04/05 06:20:04;;;;;;;;;;;19.80;29.90;;;;;;8400981;28;20280;-42
2023/04/05 06:24:05;;;;;;;;;;;19.90;29.90;;;;;;8400422;28;19931;-43
2023/04/05 06:28:06;;;;;;;;;;;20.00;29.80;;;;;;8401324;28;19921;-42
2023/04/05 06:32:06;;;;;;;;;;;20.10;29.60;;;;;;8400666;28;20003;-43
2023/04/05 06:36:07;;;;;;;;;;;20.20;29.50;;;;;;8400422;28;19917;-43
2023/04/05 06:40:08;;;;;;;;;;;20.20;29.50;;;;;;8400286;28;19912;-43
2023/04/05 06:44:08;;;;;;;;;;;20.20;29.40;;;;;;8400357;28;20339;-42
2023/04/05 06:48:08;;;;;;;;;;;20.10;29.40;;;;;;8399500;28;19916;-42
2023/04/05 06:52:09;;;;;;;;;;;20.10;29.40;;;;;;8399790;28;20011;-43
2023/04/05 06:56:10;;;;;;;;;;;20.10;29.50;;;;;;8399421;28;19916;-42
2023/04/05 07:00:11;;;;;;;;;;;20.00;29.50;;;;;;8399239;28;20448;-43
2023/04/05 07:04:12;;;;;;;;;;;20.00;29.50;;;;;;8399082;28;19931;-43
2023/04/05 07:08:12;;;;;;;;;;;20.00;29.40;;;;;;8399491;28;20318;-43
2023/04/05 07:12:13;;;;;;;;;;;20.00;29.40;;;;;;8398710;28;19924;-44
2023/04/05 07:16:13;;;;;;;;;;;19.90;29.30;;;;;;8397741;28;20254;-43
2023/04/05 07:20:15;;;;;;;;;;;19.90;29.40;;;;;;8398765;28;19917;-44
2023/04/05 07:24:15;;;;;;;;;;;19.90;29.50;;;;;;8398301;28;20326;-43
2023/04/05 07:28:16;;;;;;;;;;;19.80;29.50;;;;;;8398555;28;19917;-44
2023/04/05 07:32:16;;;;;;;;;;;19.70;29.50;;;;;;8398096;28;19923;-43
2023/04/05 07:36:16;;;;;;;;;;;19.80;29.60;;;;;;8397347;28;19917;-43
2023/04/05 07:40:17;;;;;;;;;;;19.70;29.60;;;;;;8397742;28;20293;-43
2023/04/05 07:44:17;;;;;;;;;;;19.70;29.60;;;;;;8397805;28;19920;-42
2023/04/05 07:48:18;;;;;;;;;;;19.70;29.60;;;;;;8398142;28;19917;-43
2023/04/05 07:52:19;;;;;;;;;;;19.60;30.00;;;;;;8398116;28;19999;-43
2023/04/05 07:56:19;;;;;;;;;;;19.60;29.70;;;;;;8397543;28;19921;-44
2023/04/05 08:00:20;;;;;;;;;;;19.60;29.70;;;;;;8397722;28;19920;-43
2023/04/05 08:04:22;;;;;;;;;;;19.60;29.70;;;;;;8397533;28;19925;-43
2023/04/05 08:08:25;;;;;;;;;;;19.50;29.70;;;;;;8396432;28;19917;-43
2023/04/05 08:12:26;;;;;;;;;;;19.50;29.80;;;;;;8397259;28;19995;-43
2023/04/05 08:16:26;;;;;;;;;;;19.50;29.80;;;;;;8397154;28;20018;-42
2023/04/05 08:20:27;;;;;;;;;;;19.50;29.80;;;;;;8396687;28;20396;-44
2023/04/05 08:24:27;;;;;;;;;;;19.50;29.80;;;;;;8396977;28;19974;-43
2023/04/05 08:28:28;;;;;;;;;;;19.50;29.70;;;;;;8397069;28;19916;-43
2023/04/05 08:32:28;;;;;;;;;;;19.50;29.80;;;;;;8396345;28;19999;-44
2023/04/05 08:36:29;;;;;;;;;;;19.50;29.80;;;;;;8396918;28;19970;-44
2023/04/05 08:40:41;;;;;;;;;;;19.50;29.80;;;;;;8396785;28;20266;-43
2023/04/05 08:44:43;;;;;;;;;;;19.50;29.70;;;;;;8396592;28;20465;-43
2023/04/05 08:48:43;;;;;;;;;;;19.50;29.70;;;;;;8396621;28;20431;-44
2023/04/05 08:52:48;;;;;;;;;;;19.50;29.80;;;;;;8396659;28;19917;-44
2023/04/05 08:56:50;;;;;;;;;;;19.50;29.80;;;;;;8395892;28;20374;-43
2023/04/05 09:00:50;;;;;;;;;;;19.40;29.70;;;;;;8396469;28;20007;-44
2023/04/05 09:04:51;;;;;;;;;;;19.40;29.70;;;;;;8396582;28;19924;-44
2023/04/05 09:08:53;;;;;;;;;;;19.50;29.80;;;;;;8395708;28;19916;-44
2023/04/05 09:12:54;;;;;;;;;;;19.50;29.70;;;;;;8396327;28;20350;-44
2023/04/05 09:16:55;;;;;;;;;;;19.50;29.70;;;;;;8396178;28;19913;-43
2023/04/05 09:21:04;;;;;;;;;;;19.50;29.80;;;;;;8400145;28;20005;-44
2023/04/05 09:25:05;;;;;;;;;;;19.50;29.80;;;;;;8403282;28;20032;-44
2023/04/05 09:29:05;;;;;;;;;;;19.50;29.90;;;;;;8402588;28;19916;-44
2023/04/05 09:33:07;;;;;;;;;;;19.50;29.80;;;;;;8402169;28;19969;-44
2023/04/05 09:37:15;;;;;;;;;;;19.50;29.80;;;;;;8402314;28;19920;-45
2023/04/05 09:41:15;;;;;;;;;;;19.50;29.80;;;;;;8402223;28;19917;-43
2023/04/05 09:45:17;;;;;;;;;;;19.50;29.80;;;;;;8401701;28;19920;-44
2023/04/05 09:49:30;;;;;;;;;;;19.50;29.80;;;;;;8402055;28;19921;-43
2023/04/05 09:53:31;;;;;;;;;;;19.50;29.90;;;;;;8401636;28;19927;-44
2023/04/05 09:57:39;;;;;;;;;;;19.50;29.80;;;;;;8401551;28;19916;-44
2023/04/05 10:01:43;;;;;;;;;;;19.60;29.80;;;;;;8401721;28;20382;-44
2023/04/05 10:05:43;;;;;;;;;;;19.60;29.80;;;;;;8400864;28;19932;-44
2023/04/05 10:09:45;;;;;;;;;;;19.60;29.80;;;;;;8401432;28;19912;-44
2023/04/05 10:13:47;;;;;;;;;;;19.60;29.80;;;;;;8400853;28;20247;-42
2023/04/05 10:17:52;;;;;;;;;;;19.60;30.10;;;;;;8400570;28;19916;-45
2023/04/05 10:21:53;;;;;;;;;;;19.60;29.70;;;;;;8400839;28;19952;-44
2023/04/05 10:26:02;;;;;;;;;;;19.60;29.80;;;;;;8400781;28;19924;-44
2023/04/05 10:30:04;;;;;;;;;;;19.60;29.80;;;;;;8400311;28;19913;-43
2023/04/05 10:34:06;;;;;;;;;;;19.60;29.80;;;;;;8399831;28;20015;-43
2023/04/05 10:38:24;;;;;;;;;;;19.60;29.80;;;;;;8400384;28;19916;-43
2023/04/05 10:42:32;;;;;;;;;;;19.60;29.80;;;;;;8366857;28;19917;-43
2023/04/05 10:46:33;;;;;;;;;;;19.60;29.80;;;;;;8367065;28;19916;-44
2023/04/05 10:50:34;;;;;;;;;;;19.60;29.80;;;;;;8366856;28;20305;-44
2023/04/05 10:54:35;;;;;;;;;;;19.60;29.70;;;;;;8367038;28;19917;-44
2023/04/05 10:58:38;;;;;;;;;;;19.60;29.70;;;;;;8366937;28;19924;-44
2023/04/05 11:02:39;;;;;;;;;;;19.60;29.70;;;;;;8366317;28;19929;-44
2023/04/05 11:06:40;;;;;;;;;;;19.60;29.80;;;;;;8366448;28;19919;-44
2023/04/05 11:10:40;;;;;;;;;;;19.60;29.80;;;;;;8366773;28;19973;-45
2023/04/05 11:14:43;;;;;;;;;;;19.70;29.80;;;;;;8366041;28;19996;-44
2023/04/05 11:18:45;;;;;;;;;;;19.60;29.80;;;;;;8366544;28;20555;-44
2023/04/05 11:22:52;;;;;;;;;;;19.60;29.80;;;;;;8366219;28;19921;-44
2023/04/05 11:26:53;;;;;;;;;;;19.70;29.80;;;;;;8365578;28;19953;-44
2023/04/05 11:30:57;;;;;;;;;;;19.70;29.80;;;;;;8366259;28;19936;-44
2023/04/05 11:34:59;;;;;;;;;;;19.70;29.80;;;;;;8365766;28;20073;-43
2023/04/05 11:39:18;;;;;;;;;;;19.70;29.80;;;;;;8365188;28;20286;-45
2023/04/05 11:43:18;;;;;;;;;;;19.70;29.70;;;;;;8364401;28;19932;-44
2023/04/05 11:47:22;;;;;;;;;;;19.70;29.70;;;;;;8365046;28;19913;-44
2023/04/05 11:51:22;;;;;;;;;;;19.70;29.80;;;;;;8365386;28;19920;-43
2023/04/05 11:55:26;;;;;;;;;;;19.70;29.70;;;;;;8365267;28;19960;-44
2023/04/05 11:59:27;;;;;;;;;;;19.70;29.70;;;;;;8364412;28;20011;-44
2023/04/05 12:03:28;;;;;;;;;;;19.70;29.70;;;;;;8364847;28;19947;-44
2023/04/05 12:07:31;;;;;;;;;;;19.70;29.70;;;;;;8364766;28;20278;-44
2023/04/05 12:11:32;;;;;;;;;;;19.70;29.60;;;;;;8364039;28;20306;-44
2023/04/05 12:15:35;;;;;;;;;;;19.80;29.70;;;;;;8364600;28;19917;-44
2023/04/05 12:19:36;;;;;;;;;;;19.80;29.70;;;;;;8364281;28;20314;-44
2023/04/05 12:23:36;;;;;;;;;;;19.80;29.60;;;;;;8363615;28;19937;-44
2023/04/05 12:27:37;;;;;;;;;;;19.80;29.70;;;;;;8363911;28;19913;-44
2023/04/05 12:31:44;;;;;;;;;;;19.80;29.70;;;;;;8363931;28;19975;-44
2023/04/05 12:35:45;;;;;;;;;;;19.80;29.70;;;;;;8363634;28;20363;-44
2023/04/05 12:39:45;;;;;;;;;;;19.80;29.70;;;;;;8363754;28;19924;-45
2023/04/05 12:43:46;;;;;;;;;;;19.80;29.60;;;;;;8363524;28;19932;-44
2023/04/05 12:47:47;;;;;;;;;;;19.80;29.80;;;;;;8363151;28;19952;-45
2023/04/05 12:51:48;;;;;;;;;;;19.80;29.80;;;;;;8363391;28;19917;-47
2023/04/05 12:55:52;;;;;;;;;;;19.80;29.70;;;;;;8363100;28;19916;-44
2023/04/05 12:59:52;;;;;;;;;;;19.90;29.70;;;;;;8362754;28;19924;-44
2023/04/05 13:03:53;;;;;;;;;;;19.90;29.70;;;;;;8355643;28;19925;-44
2023/04/05 13:07:55;;;;;;;;;;;19.90;29.70;;;;;;8339075;28;21283;-44
2023/04/05 13:11:56;;;;;;;;;;;19.90;29.70;;;;;;8362501;28;20285;-44
2023/04/05 13:15:56;;;;;;;;;;;19.90;29.80;;;;;;8363342;28;19995;-44
2023/04/05 13:19:57;;;;;;;;;;;19.90;29.70;;;;;;8361713;28;20266;-44
2023/04/05 13:23:57;;;;;;;;;;;19.90;29.70;;;;;;8362148;28;19979;-45
2023/04/05 13:27:58;;;;;;;;;;;19.90;29.80;;;;;;8362194;28;19924;-45
2023/04/05 13:31:58;;;;;;;;;;;19.90;29.80;;;;;;8362115;28;20278;-44
2023/04/05 13:35:59;;;;;;;;;;;19.90;29.80;;;;;;8361898;28;19913;-45
2023/04/05 13:39:59;;;;;;;;;;;19.90;29.80;;;;;;8362694;28;19917;-45
2023/04/05 13:44:00;;;;;;;;;;;19.90;29.80;;;;;;8362430;28;19932;-45
2023/04/05 13:48:01;;;;;;;;;;;19.90;29.80;;;;;;8361994;28;20274;-44
2023/04/05 13:52:01;;;;;;;;;;;19.90;29.80;;;;;;8362134;28;19913;-45
2023/04/05 13:56:02;;;;;;;;;;;19.90;29.80;;;;;;8362562;28;19955;-44
2023/04/05 14:00:03;;;;;;;;;;;19.90;29.80;;;;;;8362010;28;20004;-44
2023/04/05 14:04:03;;;;;;;;;;;19.90;29.90;;;;;;8361768;28;20301;-44
2023/04/05 14:08:04;;;;;;;;;;;19.90;29.90;;;;;;8366033;28;19975;-44
2023/04/05 14:12:05;;;;;;;;;;;19.90;29.90;;;;;;8367849;28;20278;-44
2023/04/05 14:16:05;;;;;;;;;;;19.90;29.80;;;;;;8367996;28;19963;-45
2023/04/05 14:20:06;;;;;;;;;;;19.90;29.90;;;;;;8367927;28;19917;-44
2023/04/05 14:24:07;;;;;;;;;;;19.90;29.80;;;;;;8367346;28;20016;-44
2023/04/05 14:28:07;;;;;;;;;;;19.90;29.90;;;;;;8368030;28;19913;-44
2023/04/05 14:32:08;;;;;;;;;;;19.90;29.90;;;;;;8367851;28;19916;-44
2023/04/05 14:36:08;;;;;;;;;;;19.90;29.90;;;;;;8366990;28;19917;-43
2023/04/05 14:40:09;;;;;;;;;;;19.90;29.90;;;;;;8367333;28;19928;-43
2023/04/05 14:44:09;;;;;;;;;;;19.90;29.90;;;;;;8367391;28;19959;-43
2023/04/05 14:48:10;;;;;;;;;;;19.90;29.90;;;;;;8366766;28;19928;-44
2023/04/05 14:52:11;;;;;;;;;;;19.90;29.90;;;;;;8367320;28;19917;-45
2023/04/05 14:56:11;;;;;;;;;;;19.90;29.80;;;;;;8366716;28;19927;-45
2023/04/05 15:00:12;;;;;;;;;;;19.90;29.80;;;;;;8366340;28;20004;-45
2023/04/05 15:04:12;;;;;;;;;;;19.90;29.80;;;;;;8366520;28;20344;-44
2023/04/05 15:08:13;;;;;;;;;;;19.90;29.90;;;;;;8366430;28;19940;-44
2023/04/05 15:12:14;;;;;;;;;;;20.00;30.00;;;;;;8366250;28;20282;-45
2023/04/05 15:16:14;;;;;;;;;;;20.00;29.90;;;;;;8366346;28;19924;-45
2023/04/05 15:20:15;;;;;;;;;;;20.10;29.90;;;;;;8365969;28;19916;-45
2023/04/05 15:24:15;;;;;;;;;;;20.20;29.80;;;;;;8365398;28;19931;-45
2023/04/05 15:28:16;;;;;;;;;;;20.30;29.70;;;;;;8366119;28;19917;-45
2023/04/05 15:32:16;;;;;;;;;;;20.40;29.70;;;;;;8366117;28;19917;-45
2023/04/05 15:36:17;;;;;;;;;;;20.50;29.60;;;;;;8365005;28;20013;-45
2023/04/05 15:40:17;;;;;;;;;;;20.50;29.60;;;;;;8365570;28;19917;-45
2023/04/05 15:44:18;;;;;;;;;;;20.60;29.50;;;;;;8364941;28;19931;-46
2023/04/05 15:48:18;;;;;;;;;;;20.60;29.50;;;;;;8365222;28;20340;-45
2023/04/05 15:52:19;;;;;;;;;;;20.70;29.50;;;;;;8365259;28;19913;-46
2023/04/05 15:56:19;;;;;;;;;;;20.70;29.40;;;;;;8364720;28;19916;-44
2023/04/05 16:00:21;;;;;;;;;;;20.70;29.40;;;;;;8364751;28;20390;-45
2023/04/05 16:04:23;;;;;;;;;;;20.80;29.50;;;;;;8356742;28;19951;-45
2023/04/05 16:08:24;;;;;;;;;;;20.80;29.40;;;;;;8347803;28;19919;-45
2023/04/05 16:12:24;;;;;;;;;;;20.80;29.40;;;;;;8345539;28;19921;-45
2023/04/05 16:16:26;;;;;;;;;;;20.80;29.50;;;;;;8355997;28;19924;-44
2023/04/05 16:20:27;;;;;;;;;;;20.70;29.50;;;;;;8350471;28;19923;-45
2023/04/05 16:24:28;;;;;;;;;;;20.70;29.40;;;;;;8361365;28;19925;-45
2023/04/05 16:28:28;;;;;;;;;;;20.70;29.50;;;;;;8355805;28;20393;-45
2023/04/05 16:32:28;;;;;;;;;;;20.60;29.40;;;;;;8340008;28;19980;-46
2023/04/05 16:36:29;;;;;;;;;;;20.60;29.40;;;;;;8331286;28;19923;-46
2023/04/05 16:40:31;;;;;;;;;;;20.60;29.50;;;;;;8347389;28;20049;-45
2023/04/05 16:44:31;;;;;;;;;;;20.60;29.50;;;;;;8341227;28;19929;-46
2023/04/05 16:48:32;;;;;;;;;;;20.50;29.50;;;;;;8362253;28;20010;-45
2023/04/05 16:52:32;;;;;;;;;;;20.50;29.60;;;;;;8339528;28;19960;-45
2023/04/05 16:56:32;;;;;;;;;;;20.50;30.00;;;;;;8350528;28;19920;-45
2023/04/05 17:00:33;;;;;;;;;;;20.50;29.60;;;;;;8347169;28;19924;-45
2023/04/05 17:04:33;;;;;;;;;;;20.50;29.60;;;;;;8347945;28;19987;-46
2023/04/05 17:08:34;;;;;;;;;;;20.50;29.60;;;;;;8346226;28;20006;-46
2023/04/05 17:12:36;;;;;;;;;;;20.50;29.70;;;;;;8339054;28;19916;-46
2023/04/05 17:16:38;;;;;;;;;;;20.60;29.80;;;;;;8352035;28;19924;-45
2023/04/05 17:20:38;;;;;;;;;;;20.60;29.70;;;;;;8349380;28;19917;-45
2023/04/05 17:24:39;;;;;;;;;;;20.70;29.70;;;;;;8353404;28;20310;-46
2023/04/05 17:28:39;;;;;;;;;;;20.70;29.60;;;;;;8365339;28;20373;-45
2023/04/05 17:32:40;;;;;;;;;;;20.80;29.60;;;;;;8377976;28;19939;-45
2023/04/05 17:36:41;;;;;;;;;;;20.80;29.60;;;;;;8391724;28;19921;-47
2023/04/05 17:40:42;;;;;;;;;;;20.80;29.50;;;;;;8387495;28;19959;-46
2023/04/05 17:44:43;;;;;;;;;;;20.80;29.50;;;;;;8384445;28;19931;-44
2023/04/05 17:48:43;;;;;;;;;;;20.80;29.50;;;;;;8378837;28;19963;-45
2023/04/05 17:52:43;;;;;;;;;;;20.80;29.50;;;;;;8402138;28;19975;-46
2023/04/05 17:56:44;;;;;;;;;;;20.80;29.50;;;;;;8401178;28;20300;-45
2023/04/05 18:00:45;;;;;;;;;;;20.80;29.50;;;;;;8401708;28;19917;-46
2023/04/05 18:04:45;;;;;;;;;;;20.80;29.50;;;;;;8401238;28;19994;-45
2023/04/05 18:08:46;;;;;;;;;;;20.80;29.50;;;;;;8400944;28;20309;-44
2023/04/05 18:12:46;;;;;;;;;;;20.70;29.50;;;;;;8401608;28;20366;-46
2023/04/05 18:16:47;;;;;;;;;;;20.70;29.60;;;;;;8401014;28;20014;-43
2023/04/05 18:20:48;;;;;;;;;;;20.70;29.60;;;;;;8400517;28;19923;-45
2023/04/05 18:24:49;;;;;;;;;;;20.60;29.60;;;;;;8400787;28;19924;-44
2023/04/05 18:28:53;;;;;;;;;;;20.60;29.60;;;;;;8401300;28;20392;-44
2023/04/05 18:32:54;;;;;;;;;;;20.60;29.60;;;;;;8400628;28;19916;-45
2023/04/05 18:36:54;;;;;;;;;;;20.60;29.60;;;;;;8400542;28;19917;-45
2023/04/05 18:41:02;;;;;;;;;;;20.60;29.60;;;;;;8400545;28;19931;-46
2023/04/05 18:45:03;;;;;;;;;;;20.60;29.70;;;;;;8399755;28;19963;-45
2023/04/05 18:49:03;;;;;;;;;;;20.60;29.70;;;;;;8400266;28;19913;-45
2023/04/05 18:53:05;;;;;;;;;;;20.60;29.70;;;;;;8399887;28;19939;-46
2023/04/05 18:57:06;;;;;;;;;;;20.70;30.00;;;;;;8399523;28;19916;-45
2023/04/05 19:01:08;;;;;;;;;;;20.80;29.70;;;;;;8399853;28;19928;-44
2023/04/05 19:05:08;;;;;;;;;;;20.80;29.70;;;;;;8396227;28;19935;-45
2023/04/05 19:09:10;;;;;;;;;;;20.80;29.70;;;;;;8366181;28;19913;-45
2023/04/05 19:13:10;;;;;;;;;;;20.80;29.70;;;;;;8400012;28;19913;-45
2023/04/05 19:17:11;;;;;;;;;;;20.80;29.60;;;;;;8399360;28;19923;-44
2023/04/05 19:21:12;;;;;;;;;;;20.90;29.60;;;;;;8398947;28;19916;-46
2023/04/05 19:25:13;;;;;;;;;;;20.90;29.50;;;;;;8399061;28;20289;-45
2023/04/05 19:29:13;;;;;;;;;;;20.90;29.60;;;;;;8399477;28;20262;-44
2023/04/05 19:33:14;;;;;;;;;;;20.90;29.60;;;;;;8398574;28;19940;-45
2023/04/05 19:37:14;;;;;;;;;;;20.90;29.70;;;;;;8398672;28;19917;-46
2023/04/05 19:41:15;;;;;;;;;;;20.80;29.60;;;;;;8398628;28;19922;-44
2023/04/05 19:45:22;;;;;;;;;;;20.80;29.60;;;;;;8398138;28;19986;-45
2023/04/05 19:49:27;;;;;;;;;;;20.80;29.70;;;;;;8398725;28;19999;-44
2023/04/05 19:53:38;;;;;;;;;;;20.70;29.70;;;;;;8398191;28;20371;-45
2023/04/05 19:57:40;;;;;;;;;;;20.70;29.70;;;;;;8398506;28;19920;-44
2023/04/05 20:01:40;;;;;;;;;;;20.70;29.70;;;;;;8397855;28;19920;-46
2023/04/05 20:05:41;;;;;;;;;;;20.60;29.70;;;;;;8398218;28;20015;-43
2023/04/05 20:09:42;;;;;;;;;;;20.60;29.70;;;;;;8397738;28;19924;-44
2023/04/05 20:13:49;;;;;;;;;;;20.60;29.70;;;;;;8398036;28;19920;-44
2023/04/05 20:17:50;;;;;;;;;;;20.60;29.80;;;;;;8397203;28;20003;-44
2023/04/05 20:21:50;;;;;;;;;;;20.60;29.80;;;;;;8397251;28;19979;-45
2023/04/05 20:25:51;;;;;;;;;;;20.60;29.80;;;;;;8397326;28;19928;-44
2023/04/05 20:29:53;;;;;;;;;;;20.60;29.90;;;;;;8395398;28;19924;-44
2023/04/05 20:33:53;;;;;;;;;;;20.50;30.10;;;;;;8397768;28;20003;-44
2023/04/05 20:37:54;;;;;;;;;;;20.50;30.20;;;;;;8397137;28;19917;-44
2023/04/05 20:41:55;;;;;;;;;;;20.60;29.80;;;;;;8396422;28;19999;-45
2023/04/05 20:45:56;;;;;;;;;;;20.60;29.80;;;;;;8397185;28;19921;-44
2023/04/05 20:49:56;;;;;;;;;;;20.60;29.80;;;;;;8396592;28;20059;-45
2023/04/05 20:53:57;;;;;;;;;;;20.60;29.80;;;;;;8396419;28;19916;-43
2023/04/05 20:57:57;;;;;;;;;;;20.60;29.70;;;;;;8396794;28;20373;-44
2023/04/05 21:01:57;;;;;;;;;;;20.60;29.70;;;;;;8396510;28;19924;-43
2023/04/05 21:05:59;;;;;;;;;;;20.60;29.70;;;;;;8396381;28;20011;-45
2023/04/05 21:10:00;;;;;;;;;;;20.60;29.70;;;;;;8396545;28;19913;-44
2023/04/05 21:14:00;;;;;;;;;;;20.60;29.60;;;;;;8396666;28;19940;-43
2023/04/05 21:18:01;;;;;;;;;;;20.60;29.60;;;;;;8395644;28;19920;-45
2023/04/05 21:22:01;;;;;;;;;;;20.60;29.60;;;;;;8396277;28;19920;-43
2023/04/05 21:26:03;;;;;;;;;;;20.60;29.70;;;;;;8396125;28;19924;-44
2023/04/05 21:30:03;;;;;;;;;;;20.50;29.70;;;;;;8396094;28;19996;-45
2023/04/05 21:34:04;;;;;;;;;;;20.50;29.70;;;;;;8396420;28;19916;-43
2023/04/05 21:38:04;;;;;;;;;;;20.50;29.70;;;;;;8395876;28;20377;-45
2023/04/05 21:42:05;;;;;;;;;;;20.40;29.70;;;;;;8395366;28;20041;-44
2023/04/05 21:46:05;;;;;;;;;;;20.40;29.70;;;;;;8394456;28;19985;-45
2023/04/05 21:50:06;;;;;;;;;;;20.40;29.80;;;;;;8395887;28;20429;-44
2023/04/05 21:54:07;;;;;;;;;;;20.40;29.90;;;;;;8395215;28;19923;-44
2023/04/05 21:58:07;;;;;;;;;;;20.30;29.80;;;;;;8395870;28;19923;-43
2023/04/05 22:02:08;;;;;;;;;;;20.30;29.90;;;;;;8394627;28;19966;-44
2023/04/05 22:06:08;;;;;;;;;;;20.30;29.90;;;;;;8394133;28;19924;-43
2023/04/05 22:10:09;;;;;;;;;;;20.20;29.90;;;;;;8395744;28;19916;-43
2023/04/05 22:14:09;;;;;;;;;;;20.20;29.90;;;;;;8395447;28;19916;-44
2023/04/05 22:18:10;;;;;;;;;;;20.20;30.00;;;;;;8394913;28;19974;-42
2023/04/05 22:22:12;;;;;;;;;;;20.20;30.00;;;;;;8395446;28;20423;-42
2023/04/05 22:26:12;;;;;;;;;;;20.20;30.00;;;;;;8394990;28;19924;-43
2023/04/05 22:30:13;;;;;;;;;;;20.10;29.90;;;;;;8400363;28;19919;-42
2023/04/05 22:34:13;;;;;;;;;;;20.10;30.00;;;;;;8400795;28;20308;-42
2023/04/05 22:38:14;;;;;;;;;;;20.10;30.00;;;;;;8400776;28;20321;-43
2023/04/05 22:42:14;;;;;;;;;;;20.10;30.00;;;;;;8400077;28;19917;-42
2023/04/05 22:46:15;;;;;;;;;;;20.00;30.00;;;;;;8400643;28;19920;-42
2023/04/05 22:50:16;;;;;;;;;;;20.00;30.00;;;;;;8401078;28;20384;-43
2023/04/05 22:54:16;;;;;;;;;;;20.00;30.00;;;;;;8399891;28;19916;-43
2023/04/05 22:58:18;;;;;;;;;;;20.00;30.00;;;;;;8400343;28;20014;-43
2023/04/05 23:02:19;;;;;;;;;;;20.00;30.00;;;;;;8400076;28;20411;-43
2023/04/05 23:06:20;;;;;;;;;;;19.90;30.00;;;;;;8400130;28;19924;-43
2023/04/05 23:10:20;;;;;;;;;;;19.90;30.00;;;;;;8400126;28;20377;-43
2023/04/05 23:14:21;;;;;;;;;;;19.90;30.00;;;;;;8399358;28;19943;-43
2023/04/05 23:18:21;;;;;;;;;;;19.90;30.00;;;;;;8399571;28;20391;-43
2023/04/05 23:22:22;;;;;;;;;;;19.90;30.00;;;;;;8399355;28;19966;-43